Terminal Aerodrome Forecast
Issued by NWS Twin Cities, MN

Home | Current Version | Previous Version | Graphics & Text | Print | Product List | Glossary On
Versions: 1 2 3 4 5 6 7 8 9 10 11 12 13 14 15 16 17 18 19 20 21 22 23 24 25 26 27 28
000
FTUS43 KMPX 301431 AAA
TAFMSP
TAF AMD
KMSP 301431Z 3015/0118 32003KT P6SM -RA BKN010 OVC012
      TEMPO 3015/3018 SCT010 OVC012
     FM301800 32005KT P6SM -RA OVC009
     FM302300 31007KT 5SM -RA BR OVC012
     FM010500 30007KT 6SM BR OVC015=

USA.gov is the U.S. government's official web portal to all federal, state and local government web resources and services.